Terminal Aerodrome Forecast
Issued by NWS Jackson, MS

Home | Current Version | Previous Version | Text Only | Print | Product List | Glossary On
Versions: 1 2 3 4 5 6 7 8 9 10 11 12 13 14 15 16 17 18
414
FTUS44 KJAN 222331
TAFGLH
TAF
KGLH 222331Z 2300/2324 06007KT P6SM VCSH BKN006
     FM230400 13006KT P6SM BKN015
     FM231400 18008KT P6SM VCSH BKN025
     FM231800 15006KT P6SM VCTS BKN035CB=

USA.gov is the U.S. government's official web portal to all federal, state and local government web resources and services.